createdAt,value
2023-04-29T00:01:11.123Z,20.50
2023-04-29T00:03:37.973Z,22.27
2023-04-29T00:06:05.180Z,22.00
2023-04-29T00:08:31.880Z,21.27
2023-04-29T00:10:58.549Z,20.47
2023-04-29T00:13:25.217Z,17.13
2023-04-29T00:15:53.213Z,22.33
2023-04-29T00:18:19.868Z,26.23
2023-04-29T00:20:46.535Z,19.63
2023-04-29T00:23:13.177Z,20.10
2023-04-29T00:25:39.816Z,26.97
2023-04-29T00:28:06.495Z,20.23
2023-04-29T00:30:33.265Z,23.20
2023-04-29T00:33:01.260Z,24.07
2023-04-29T00:35:28.054Z,24.90
2023-04-29T00:37:54.689Z,24.03
2023-04-29T00:40:21.490Z,21.30
2023-04-29T00:42:48.375Z,19.10
2023-04-29T00:45:15.080Z,25.20
2023-04-29T00:47:41.843Z,20.10
2023-04-29T00:50:10.599Z,19.97
2023-04-29T00:52:38.664Z,23.40
2023-04-29T00:55:08.248Z,21.13
2023-04-29T00:57:35.065Z,19.40
2023-04-29T01:00:03.839Z,20.80
2023-04-29T01:02:30.666Z,21.97
2023-04-29T01:04:57.528Z,21.70
2023-04-29T01:07:34.503Z,17.97
2023-04-29T01:10:04.172Z,21.33
2023-04-29T01:12:35.408Z,21.03
2023-04-29T01:15:09.373Z,16.13
2023-04-29T01:17:41.433Z,20.40
2023-04-29T01:20:10.779Z,26.00
2023-04-29T01:22:38.802Z,21.07
2023-04-29T01:25:07.934Z,20.07
2023-04-29T01:27:46.817Z,20.60
2023-04-29T01:30:25.761Z,17.73
2023-04-29T01:33:00.655Z,19.00
2023-04-29T01:35:40.965Z,19.07
2023-04-29T01:38:16.941Z,19.73
2023-04-29T01:40:49.912Z,19.57
2023-04-29T01:43:18.354Z,21.97
2023-04-29T01:45:45.103Z,22.43
2023-04-29T01:48:12.733Z,24.33
2023-04-29T01:50:39.400Z,23.70
2023-04-29T01:53:06.064Z,22.20
2023-04-29T01:55:32.797Z,23.60
2023-04-29T01:58:00.798Z,26.20
2023-04-29T02:00:27.577Z,22.17
2023-04-29T02:02:54.285Z,25.13
2023-04-29T02:05:21.035Z,24.57
2023-04-29T02:07:47.654Z,21.30
2023-04-29T02:10:14.553Z,22.97
2023-04-29T02:12:41.204Z,28.97
2023-04-29T02:15:10.125Z,22.67
2023-04-29T02:17:36.823Z,22.30
2023-04-29T02:20:04.067Z,21.10
2023-04-29T02:22:30.722Z,20.03
2023-04-29T02:24:57.814Z,19.27
2023-04-29T02:27:24.534Z,20.40
2023-04-29T02:29:51.579Z,17.80
2023-04-29T02:32:19.757Z,19.60
2023-04-29T02:34:46.851Z,18.03
2023-04-29T02:37:13.493Z,19.07
2023-04-29T02:39:40.157Z,17.90
2023-04-29T02:42:06.827Z,18.87
2023-04-29T02:44:33.513Z,15.27
2023-04-29T02:47:00.207Z,17.07
2023-04-29T02:49:28.243Z,18.00
2023-04-29T02:51:54.963Z,17.43
2023-04-29T02:54:21.669Z,18.70
2023-04-29T02:56:48.358Z,18.67
2023-04-29T02:59:15.047Z,18.50
2023-04-29T03:01:41.784Z,18.77
2023-04-29T03:04:08.785Z,18.53
2023-04-29T03:06:37.211Z,18.87
2023-04-29T03:09:04.001Z,18.53
2023-04-29T03:11:30.683Z,18.67
2023-04-29T03:13:57.372Z,19.60
2023-04-29T03:16:24.174Z,17.00
2023-04-29T03:18:50.810Z,19.70
2023-04-29T03:21:17.528Z,22.97
2023-04-29T03:23:45.595Z,22.13
2023-04-29T03:26:12.262Z,23.57
2023-04-29T03:28:38.960Z,23.60
2023-04-29T03:31:05.667Z,30.50
2023-04-29T03:33:32.356Z,25.10
2023-04-29T03:35:59.037Z,27.30
2023-04-29T03:38:25.705Z,32.60
2023-04-29T03:40:53.705Z,36.20
2023-04-29T03:43:20.350Z,42.23
2023-04-29T03:45:47.051Z,43.80
2023-04-29T03:48:13.815Z,37.00
2023-04-29T03:50:40.542Z,43.13
2023-04-29T03:53:07.391Z,41.90
2023-04-29T03:55:34.071Z,36.10
2023-04-29T03:58:03.069Z,37.77
2023-04-29T04:00:30.140Z,38.80
2023-04-29T04:02:57.002Z,39.80
2023-04-29T04:05:23.922Z,36.63
2023-04-29T04:07:50.624Z,40.50
2023-04-29T04:10:17.344Z,34.10
2023-04-29T04:12:44.487Z,34.20
2023-04-29T04:15:12.792Z,30.37
2023-04-29T04:17:39.579Z,33.60
2023-04-29T04:20:07.458Z,37.03
2023-04-29T04:22:34.133Z,38.50
2023-04-29T04:25:00.777Z,34.93
2023-04-29T04:27:27.443Z,33.03
2023-04-29T04:29:54.260Z,29.73
2023-04-29T04:32:22.541Z,33.67
2023-04-29T04:34:49.313Z,32.10
2023-04-29T04:37:16.301Z,31.03
2023-04-29T04:39:43.050Z,26.37
2023-04-29T04:42:09.720Z,25.13
2023-04-29T04:44:36.364Z,27.90
2023-04-29T04:47:03.043Z,25.30
2023-04-29T04:49:30.995Z,29.10
2023-04-29T04:51:57.636Z,25.87
2023-04-29T04:54:24.409Z,28.43
2023-04-29T04:56:51.136Z,22.13
2023-04-29T04:59:17.860Z,23.97
2023-04-29T05:01:44.946Z,22.43
2023-04-29T05:04:11.755Z,22.13
2023-04-29T05:06:39.933Z,22.70
2023-04-29T05:09:06.652Z,24.23
2023-04-29T05:11:33.319Z,23.50
2023-04-29T05:13:59.976Z,22.17
2023-04-29T05:16:26.706Z,19.43
2023-04-29T05:18:53.365Z,21.00
2023-04-29T05:21:20.047Z,18.47
2023-04-29T05:23:48.006Z,14.77
2023-04-29T05:26:14.667Z,16.30
2023-04-29T05:28:41.306Z,18.83
2023-04-29T05:31:07.984Z,13.83
2023-04-29T05:33:34.693Z,12.83
2023-04-29T05:36:01.596Z,14.40
2023-04-29T05:38:28.235Z,14.63
2023-04-29T05:40:56.361Z,14.17
2023-04-29T05:43:23.115Z,12.70
2023-04-29T05:45:49.881Z,14.27
2023-04-29T05:48:16.669Z,14.17
2023-04-29T05:50:43.399Z,15.47
2023-04-29T05:53:10.047Z,15.33
2023-04-29T05:55:36.747Z,15.93
2023-04-29T05:58:04.745Z,12.40
2023-04-29T06:00:31.426Z,15.53
2023-04-29T06:02:59.289Z,17.07
2023-04-29T06:05:26.719Z,14.30
2023-04-29T06:07:53.647Z,14.07
2023-04-29T06:10:20.312Z,11.03
2023-04-29T06:12:47.020Z,12.43
2023-04-29T06:15:15.116Z,13.10
2023-04-29T06:17:41.836Z,9.33
2023-04-29T06:20:09.813Z,11.23
2023-04-29T06:22:36.482Z,16.30
2023-04-29T06:25:03.275Z,9.77
2023-04-29T06:27:30.017Z,10.63
2023-04-29T06:29:56.689Z,9.67
2023-04-29T06:32:24.708Z,8.20
2023-04-29T06:34:51.398Z,9.97
2023-04-29T06:37:18.018Z,9.83
2023-04-29T06:39:44.676Z,7.67
2023-04-29T06:42:11.322Z,9.43
2023-04-29T06:44:38.008Z,8.67
2023-04-29T06:47:04.720Z,10.40
2023-04-29T06:49:32.817Z,9.10
2023-04-29T06:51:59.452Z,12.53
2023-04-29T06:54:26.127Z,11.60
2023-04-29T06:56:52.769Z,11.80
2023-04-29T06:59:19.452Z,9.63
2023-04-29T07:01:48.318Z,12.53
2023-04-29T07:04:16.384Z,10.50
2023-04-29T07:06:44.337Z,11.50
2023-04-29T07:09:11.029Z,10.40
2023-04-29T07:11:37.714Z,11.40
2023-04-29T07:14:04.365Z,10.70
2023-04-29T07:16:31.135Z,11.13
2023-04-29T07:18:57.795Z,10.90
2023-04-29T07:21:24.492Z,9.63
2023-04-29T07:23:52.514Z,10.23
2023-04-29T07:26:19.175Z,12.80
2023-04-29T07:28:45.903Z,14.30
2023-04-29T07:31:12.641Z,12.77
2023-04-29T07:33:39.394Z,11.70
2023-04-29T07:36:06.351Z,13.20
2023-04-29T07:38:33.055Z,13.00
2023-04-29T07:41:01.345Z,12.70
2023-04-29T07:43:27.999Z,13.63
2023-04-29T07:45:54.697Z,14.37
2023-04-29T07:48:21.467Z,11.30
2023-04-29T07:50:48.128Z,13.37
2023-04-29T07:53:14.838Z,13.10
2023-04-29T07:55:41.556Z,14.80
2023-04-29T07:58:09.622Z,11.90
2023-04-29T08:00:36.272Z,15.40
2023-04-29T08:03:03.025Z,14.90
2023-04-29T08:05:29.944Z,13.67
2023-04-29T08:07:57.059Z,16.07
2023-04-29T08:10:23.744Z,16.43
2023-04-29T08:12:50.427Z,20.20
2023-04-29T08:15:18.493Z,17.27
2023-04-29T08:17:45.216Z,17.23
2023-04-29T08:20:12.688Z,21.70
2023-04-29T08:22:39.355Z,25.80
2023-04-29T08:25:07.061Z,23.80
2023-04-29T08:27:33.843Z,30.17
2023-04-29T08:30:00.728Z,26.80
2023-04-29T08:32:31.129Z,31.30
2023-04-29T08:34:57.807Z,26.00
2023-04-29T08:37:24.481Z,26.17
2023-04-29T08:39:51.172Z,24.90
2023-04-29T08:42:28.696Z,23.70
2023-04-29T08:44:56.328Z,25.13
2023-04-29T08:47:23.464Z,25.23
2023-04-29T08:49:51.602Z,30.20
2023-04-29T08:52:18.315Z,27.20
2023-04-29T08:54:45.002Z,26.97
2023-04-29T08:57:12.171Z,23.73
2023-04-29T08:59:38.874Z,27.20
2023-04-29T09:02:09.949Z,26.80
2023-04-29T09:04:44.961Z,20.67
2023-04-29T09:07:13.792Z,26.10
2023-04-29T09:09:41.371Z,22.80
2023-04-29T09:12:08.143Z,23.23
2023-04-29T09:14:35.933Z,23.10
2023-04-29T09:17:02.741Z,25.40
2023-04-29T09:19:30.501Z,20.27
2023-04-29T09:21:57.404Z,25.63
2023-04-29T09:24:27.328Z,23.50
2023-04-29T09:26:54.400Z,22.37
2023-04-29T09:29:21.279Z,21.43
2023-04-29T09:31:48.482Z,20.97
2023-04-29T09:34:15.617Z,21.30
2023-04-29T09:36:43.668Z,22.53
2023-04-29T09:39:11.929Z,21.20
2023-04-29T09:41:42.672Z,20.70
2023-04-29T09:44:10.434Z,20.93
2023-04-29T09:46:37.722Z,19.03
2023-04-29T09:49:05.121Z,18.57
2023-04-29T09:51:31.934Z,18.30
2023-04-29T09:53:59.717Z,17.23
2023-04-29T09:56:26.429Z,19.60
2023-04-29T09:58:54.426Z,17.50
2023-04-29T10:01:22.576Z,18.93
2023-04-29T10:03:51.704Z,19.53
2023-04-29T10:06:19.068Z,18.83
2023-04-29T10:08:46.829Z,17.17
2023-04-29T10:11:14.623Z,21.40
2023-04-29T10:13:42.631Z,14.87
2023-04-29T10:16:23.321Z,18.60
2023-04-29T10:18:54.602Z,17.07
2023-04-29T10:21:24.653Z,18.93
2023-04-29T10:23:53.741Z,20.33
2023-04-29T10:26:20.863Z,16.73
2023-04-29T10:28:49.516Z,17.50
2023-04-29T10:31:19.840Z,17.60
2023-04-29T10:33:47.798Z,17.27
2023-04-29T10:36:15.316Z,16.83
2023-04-29T10:38:45.265Z,20.77
2023-04-29T10:41:19.315Z,17.97
2023-04-29T10:43:46.328Z,15.53
2023-04-29T10:46:22.106Z,18.73
2023-04-29T10:48:50.335Z,14.80
2023-04-29T10:51:31.183Z,19.53
2023-04-29T10:54:02.643Z,15.47
2023-04-29T10:56:43.110Z,13.67
2023-04-29T10:59:11.230Z,14.07
2023-04-29T11:01:44.341Z,17.63
2023-04-29T11:04:11.145Z,14.47
2023-04-29T11:06:44.662Z,13.50
2023-04-29T11:09:13.820Z,15.60
2023-04-29T11:11:44.943Z,12.17
2023-04-29T11:14:13.435Z,11.83
2023-04-29T11:16:49.254Z,14.47
2023-04-29T11:19:16.910Z,12.83
2023-04-29T11:21:45.564Z,14.53
2023-04-29T11:24:12.503Z,10.87
2023-04-29T11:26:39.231Z,10.70
2023-04-29T11:29:07.703Z,10.27
2023-04-29T11:31:34.452Z,12.93
2023-04-29T11:34:04.533Z,13.90
2023-04-29T11:36:32.630Z,12.80
2023-04-29T11:39:00.770Z,12.80
2023-04-29T11:41:27.968Z,11.03
2023-04-29T11:43:58.240Z,10.43
2023-04-29T11:46:25.283Z,10.60
2023-04-29T11:48:51.996Z,11.37
2023-04-29T11:51:20.199Z,9.73
2023-04-29T11:53:46.963Z,9.90
2023-04-29T11:56:13.846Z,10.57
2023-04-29T11:58:42.744Z,7.43
2023-04-29T12:01:09.601Z,8.67
2023-04-29T12:03:36.700Z,10.40
2023-04-29T12:06:03.935Z,9.03
2023-04-29T12:08:31.991Z,10.57
2023-04-29T12:10:59.770Z,7.50
2023-04-29T12:13:28.910Z,8.23
2023-04-29T12:15:57.040Z,7.37
2023-04-29T12:18:24.478Z,10.07
2023-04-29T12:20:51.808Z,9.13
2023-04-29T12:23:20.066Z,8.50
2023-04-29T12:25:49.719Z,10.30
2023-04-29T12:28:17.228Z,11.30
2023-04-29T12:30:44.585Z,9.10
2023-04-29T12:33:15.469Z,9.80
2023-04-29T12:35:42.166Z,8.23
2023-04-29T12:38:09.280Z,9.73
2023-04-29T12:40:35.976Z,8.23
2023-04-29T12:43:10.676Z,6.70
2023-04-29T12:45:38.910Z,9.43
2023-04-29T12:48:10.005Z,11.50
2023-04-29T12:50:41.825Z,11.97
2023-04-29T12:53:09.226Z,7.33
2023-04-29T12:55:37.608Z,10.30
2023-04-29T12:58:05.124Z,7.20
2023-04-29T13:00:33.308Z,7.90
2023-04-29T13:03:00.254Z,12.63
2023-04-29T13:05:27.142Z,8.80
2023-04-29T13:07:53.816Z,8.10
2023-04-29T13:10:20.523Z,8.50
2023-04-29T13:12:47.245Z,9.17
2023-04-29T13:15:13.893Z,7.93
2023-04-29T13:17:41.906Z,7.70
2023-04-29T13:20:10.928Z,6.93
2023-04-29T13:22:37.811Z,9.93
2023-04-29T13:25:05.349Z,8.63
2023-04-29T13:27:32.014Z,9.07
2023-04-29T13:29:58.839Z,8.63
2023-04-29T13:32:25.571Z,7.67
2023-04-29T13:34:53.935Z,13.03
2023-04-29T13:37:20.830Z,7.43
2023-04-29T13:39:48.051Z,7.77
2023-04-29T13:42:15.815Z,6.43
2023-04-29T13:44:51.770Z,9.40
2023-04-29T13:47:25.226Z,8.20
2023-04-29T13:50:33.984Z,8.73
2023-04-29T13:53:19.180Z,7.47
2023-04-29T13:56:23.511Z,6.30
2023-04-29T13:58:56.223Z,9.70
2023-04-29T14:01:17.621Z,6.80
2023-04-29T14:03:47.612Z,7.13
2023-04-29T14:06:15.740Z,9.53
2023-04-29T14:08:42.384Z,8.27
2023-04-29T14:11:09.225Z,5.47
2023-04-29T14:13:35.914Z,8.20
2023-04-29T14:16:02.709Z,11.97
2023-04-29T14:18:29.373Z,7.60
2023-04-29T14:20:56.232Z,7.67
2023-04-29T14:23:24.293Z,9.03
2023-04-29T14:25:51.413Z,8.70
2023-04-29T14:28:18.168Z,10.83
2023-04-29T14:30:46.866Z,13.40
2023-04-29T14:33:13.854Z,5.60
2023-04-29T14:35:40.513Z,6.90
2023-04-29T14:38:07.190Z,7.67
2023-04-29T14:40:35.193Z,7.80
2023-04-29T14:43:01.836Z,7.17
2023-04-29T14:45:28.478Z,7.23
2023-04-29T14:47:55.176Z,8.43
2023-04-29T14:50:21.869Z,18.17
2023-04-29T14:52:48.592Z,9.87
2023-04-29T14:55:15.506Z,9.70
2023-04-29T14:57:43.491Z,10.83
2023-04-29T15:00:11.452Z,9.83
2023-04-29T15:02:38.121Z,8.43
2023-04-29T15:05:05.370Z,10.60
2023-04-29T15:07:32.408Z,7.60
2023-04-29T15:09:59.090Z,8.33
2023-04-29T15:12:25.760Z,11.37
2023-04-29T15:14:54.103Z,10.93
2023-04-29T15:17:20.948Z,9.13
2023-04-29T15:19:47.641Z,12.80
2023-04-29T15:22:14.387Z,8.83
2023-04-29T15:24:41.075Z,9.93
2023-04-29T15:27:07.736Z,8.60
2023-04-29T15:29:34.552Z,13.60
2023-04-29T15:32:02.680Z,9.73
2023-04-29T15:34:29.400Z,7.97
2023-04-29T15:36:56.029Z,13.30
2023-04-29T15:39:22.900Z,9.43
2023-04-29T15:41:49.530Z,7.40
2023-04-29T15:44:16.536Z,10.50
2023-04-29T15:46:43.322Z,9.70
2023-04-29T15:49:11.360Z,13.60
2023-04-29T15:51:38.027Z,7.80
2023-04-29T15:54:04.711Z,8.23
2023-04-29T15:56:31.459Z,9.10
2023-04-29T15:58:58.124Z,10.20
2023-04-29T16:01:24.848Z,10.47
2023-04-29T16:03:51.567Z,8.83
2023-04-29T16:06:19.874Z,10.03
2023-04-29T16:08:46.797Z,13.87
2023-04-29T16:11:14.090Z,8.17
2023-04-29T16:13:41.089Z,8.50
2023-04-29T16:16:08.048Z,8.10
2023-04-29T16:18:34.799Z,9.73
2023-04-29T16:21:01.551Z,14.10
2023-04-29T16:23:29.515Z,8.53
2023-04-29T16:25:57.501Z,10.07
2023-04-29T16:28:24.247Z,11.17
2023-04-29T16:30:50.945Z,9.50
2023-04-29T16:33:17.637Z,6.93
2023-04-29T16:35:44.381Z,12.33
2023-04-29T16:38:11.090Z,6.90
2023-04-29T16:40:39.103Z,9.80
2023-04-29T16:43:05.811Z,9.10
2023-04-29T16:45:32.574Z,7.10
2023-04-29T16:50:26.828Z,6.80
2023-04-29T16:52:53.648Z,10.90
2023-04-29T16:55:21.091Z,6.57
2023-04-29T16:57:49.062Z,8.10
2023-04-29T17:00:15.859Z,8.50
2023-04-29T17:02:42.672Z,13.77
2023-04-29T17:05:10.006Z,10.47
2023-04-29T17:07:36.866Z,9.10
2023-04-29T17:10:04.303Z,14.23
2023-04-29T17:12:31.112Z,11.40
2023-04-29T17:14:59.270Z,10.07
2023-04-29T17:17:26.168Z,9.43
2023-04-29T17:19:53.267Z,9.70
2023-04-29T17:22:20.293Z,9.03
2023-04-29T17:24:48.722Z,9.60
2023-04-29T17:27:15.536Z,12.80
2023-04-29T17:29:42.278Z,9.37
2023-04-29T17:32:10.586Z,15.63
2023-04-29T17:34:37.476Z,9.00
2023-04-29T17:37:04.716Z,8.80
2023-04-29T17:39:31.595Z,9.00
2023-04-29T17:41:58.750Z,9.47
2023-04-29T17:44:25.449Z,8.90
2023-04-29T17:46:52.238Z,10.17
2023-04-29T17:49:20.326Z,11.53
2023-04-29T17:51:47.033Z,8.40
2023-04-29T17:54:13.740Z,7.27
2023-04-29T17:56:40.514Z,9.17
2023-04-29T17:59:07.482Z,9.90
2023-04-29T18:01:35.186Z,8.07
2023-04-29T18:04:02.057Z,6.00
2023-04-29T18:06:30.295Z,10.47
2023-04-29T18:08:57.272Z,6.37
2023-04-29T18:11:24.063Z,9.20
2023-04-29T18:13:53.362Z,9.90
2023-04-29T18:16:20.070Z,8.37
2023-04-29T18:18:46.816Z,7.13
2023-04-29T18:21:19.103Z,7.60
2023-04-29T18:23:47.138Z,7.87
2023-04-29T18:26:13.968Z,6.10
2023-04-29T18:28:40.658Z,10.13
2023-04-29T18:31:07.400Z,9.37
2023-04-29T18:33:34.142Z,7.53
2023-04-29T18:36:00.861Z,9.10
2023-04-29T18:38:27.572Z,9.87
2023-04-29T18:40:55.623Z,6.73
2023-04-29T18:43:22.369Z,8.00
2023-04-29T18:45:49.146Z,8.37
2023-04-29T18:48:16.016Z,8.20
2023-04-29T18:50:42.858Z,12.30
2023-04-29T18:53:09.634Z,16.70
2023-04-29T18:55:36.449Z,16.93
2023-04-29T18:58:04.518Z,16.03
2023-04-29T19:00:31.522Z,14.00
2023-04-29T19:02:58.345Z,9.67
2023-04-29T19:05:25.075Z,10.20
2023-04-29T19:07:51.913Z,9.50
2023-04-29T19:10:18.721Z,8.30
2023-04-29T19:12:45.445Z,6.80
2023-04-29T19:15:13.520Z,6.53
2023-04-29T19:17:40.242Z,6.67
2023-04-29T19:20:08.133Z,10.47
2023-04-29T19:22:34.902Z,7.10
2023-04-29T19:25:01.694Z,7.70
2023-04-29T19:27:28.418Z,10.13
2023-04-29T19:29:55.343Z,7.80
2023-04-29T19:32:23.530Z,6.97
2023-04-29T19:34:50.325Z,5.70
2023-04-29T19:37:17.052Z,8.10
2023-04-29T19:39:43.769Z,7.83
2023-04-29T19:42:10.474Z,6.37
2023-04-29T19:44:37.291Z,5.03
2023-04-29T19:47:04.118Z,5.67
2023-04-29T19:49:32.235Z,4.57
2023-04-29T19:51:58.990Z,4.80
2023-04-29T19:54:25.714Z,5.67
2023-04-29T19:56:52.433Z,6.30
2023-04-29T19:59:19.127Z,5.90
2023-04-29T20:01:46.555Z,7.70
2023-04-29T20:04:13.263Z,6.93
2023-04-29T20:06:41.493Z,9.00
2023-04-29T20:09:08.341Z,6.50
2023-04-29T20:11:35.057Z,5.20
2023-04-29T20:14:01.907Z,7.07
2023-04-29T20:16:28.623Z,7.00
2023-04-29T20:18:55.395Z,8.13
2023-04-29T20:21:22.603Z,4.57
2023-04-29T20:23:50.629Z,4.80
2023-04-29T20:26:19.075Z,4.30
2023-04-29T20:28:46.424Z,5.20
2023-04-29T20:31:13.113Z,5.67
2023-04-29T20:33:39.795Z,6.93
2023-04-29T20:36:06.514Z,9.53
2023-04-29T20:38:33.335Z,6.57
2023-04-29T20:41:01.384Z,6.63
2023-04-29T20:43:28.263Z,6.80
2023-04-29T20:45:55.004Z,5.33
2023-04-29T20:48:21.781Z,6.87
2023-04-29T20:50:48.543Z,8.10
2023-04-29T20:53:15.291Z,5.43
2023-04-29T20:55:41.992Z,6.77
2023-04-29T20:58:10.067Z,5.33
2023-04-29T21:00:36.754Z,5.90
2023-04-29T21:03:03.578Z,5.77
2023-04-29T21:05:30.319Z,8.93
2023-04-29T21:07:57.031Z,5.17
2023-04-29T21:10:23.711Z,7.50
2023-04-29T21:12:50.459Z,5.23
2023-04-29T21:15:18.607Z,5.30
2023-04-29T21:17:45.359Z,5.17
2023-04-29T21:20:12.861Z,4.30
2023-04-29T21:22:39.590Z,8.07
2023-04-29T21:25:06.996Z,4.97
2023-04-29T21:27:33.757Z,3.80
2023-04-29T21:30:00.554Z,6.47
2023-04-29T21:32:28.708Z,5.83
2023-04-29T21:34:55.485Z,4.83
2023-04-29T21:37:22.141Z,5.70
2023-04-29T21:39:48.844Z,5.77
2023-04-29T21:42:15.598Z,6.40
2023-04-29T21:44:42.279Z,6.70
2023-04-29T21:47:09.126Z,8.50
2023-04-29T21:49:37.176Z,5.63
2023-04-29T21:52:04.166Z,7.03
2023-04-29T21:54:30.872Z,10.10
2023-04-29T21:56:57.601Z,11.90
2023-04-29T21:59:24.368Z,6.13
2023-04-29T22:01:51.221Z,6.03
2023-04-29T22:04:17.970Z,11.27
2023-04-29T22:06:46.136Z,14.57
2023-04-29T22:09:13.041Z,28.67
2023-04-29T22:11:39.787Z,39.00
2023-04-29T22:14:06.464Z,36.33
2023-04-29T22:16:33.461Z,34.83
2023-04-29T22:19:00.207Z,24.93
2023-04-29T22:21:27.289Z,20.53
2023-04-29T22:23:55.603Z,23.77
2023-04-29T22:26:22.360Z,17.30
2023-04-29T22:28:49.278Z,14.17
2023-04-29T22:31:16.146Z,8.30
2023-04-29T22:33:43.168Z,5.17
2023-04-29T22:36:10.012Z,4.90
2023-04-29T22:38:36.814Z,6.33
2023-04-29T22:41:05.314Z,4.00
2023-04-29T22:43:32.442Z,8.73
2023-04-29T22:45:59.274Z,4.37
2023-04-29T22:48:27.658Z,6.47
2023-04-29T22:50:56.012Z,13.50
2023-04-29T22:53:23.197Z,23.60
2023-04-29T22:55:50.977Z,18.10
2023-04-29T22:58:19.242Z,17.00
2023-04-29T23:00:46.369Z,11.27
2023-04-29T23:03:13.236Z,9.47
2023-04-29T23:05:40.638Z,6.97
2023-04-29T23:08:07.435Z,6.23
2023-04-29T23:10:34.687Z,5.13
2023-04-29T23:13:01.972Z,4.20
2023-04-29T23:15:30.542Z,4.17
2023-04-29T23:17:58.135Z,5.87
2023-04-29T23:20:25.262Z,3.63
2023-04-29T23:22:52.037Z,9.43
2023-04-29T23:25:18.810Z,5.70
2023-04-29T23:27:45.505Z,3.53
2023-04-29T23:30:12.422Z,4.30
2023-04-29T23:32:40.592Z,6.53
2023-04-29T23:35:08.106Z,4.60
2023-04-29T23:37:35.084Z,3.90
2023-04-29T23:40:02.046Z,6.20
2023-04-29T23:42:28.823Z,4.23
2023-04-29T23:44:55.498Z,3.43
2023-04-29T23:47:22.716Z,5.80
2023-04-29T23:49:50.900Z,4.90
2023-04-29T23:52:17.791Z,4.40
2023-04-29T23:54:44.481Z,7.10
2023-04-29T23:57:11.388Z,3.13
2023-04-29T23:59:38.628Z,9.97
